createdAt,value
2017-09-08T00:02:23.624Z,29.37
2017-09-08T00:04:49.858Z,32.17
2017-09-08T00:07:16.125Z,23.80
2017-09-08T00:09:42.348Z,32.27
2017-09-08T00:12:09.320Z,16.63
2017-09-08T00:14:35.577Z,16.90
2017-09-08T00:17:02.643Z,25.50
2017-09-08T00:19:28.869Z,27.23
2017-09-08T00:21:55.112Z,23.90
2017-09-08T00:24:22.090Z,25.93
2017-09-08T00:26:48.318Z,30.30
2017-09-08T00:29:14.706Z,22.43
2017-09-08T00:31:40.934Z,26.70
2017-09-08T00:34:07.949Z,26.40
2017-09-08T00:36:34.490Z,30.90
2017-09-08T00:39:00.748Z,22.77
2017-09-08T00:41:27.722Z,25.90
2017-09-08T00:43:54.008Z,47.90
2017-09-08T00:46:20.260Z,28.13
2017-09-08T00:48:47.242Z,29.13
2017-09-08T00:51:13.518Z,39.27
2017-09-08T00:53:40.529Z,23.60
2017-09-08T00:56:06.830Z,24.17
2017-09-08T00:58:33.073Z,31.63
2017-09-08T01:00:59.305Z,44.07
2017-09-08T01:03:25.574Z,22.17
2017-09-08T01:05:51.838Z,33.77
2017-09-08T01:08:18.813Z,18.43
2017-09-08T01:10:45.080Z,26.23
2017-09-08T01:13:11.334Z,32.37
2017-09-08T01:15:37.583Z,27.70
2017-09-08T01:18:03.857Z,33.47
2017-09-08T01:20:30.077Z,30.83
2017-09-08T01:23:02.546Z,26.70
2017-09-08T01:25:28.789Z,28.43
2017-09-08T01:27:55.002Z,28.37
2017-09-08T01:30:21.247Z,33.60
2017-09-08T01:32:47.505Z,34.17
2017-09-08T01:35:13.738Z,42.20
2017-09-08T01:37:40.005Z,24.93
2017-09-08T01:40:06.350Z,34.93
2017-09-08T01:42:32.599Z,31.73
2017-09-08T01:44:58.809Z,23.20
2017-09-08T01:47:25.043Z,28.97
2017-09-08T01:49:51.268Z,31.60
2017-09-08T01:52:17.517Z,25.13
2017-09-08T01:54:43.738Z,28.90
2017-09-08T01:57:09.964Z,33.17
2017-09-08T01:59:36.227Z,26.47
2017-09-08T02:02:02.483Z,30.73
2017-09-08T02:04:28.701Z,29.77
2017-09-08T02:06:54.966Z,38.60
2017-09-08T02:09:21.185Z,33.57
2017-09-08T02:11:47.393Z,28.67
2017-09-08T02:14:13.850Z,31.03
2017-09-08T02:16:40.074Z,23.43
2017-09-08T02:19:06.291Z,28.20
2017-09-08T02:21:38.610Z,25.07
2017-09-08T02:24:05.574Z,26.40
2017-09-08T02:26:31.864Z,27.63
2017-09-08T02:28:58.110Z,21.47
2017-09-08T02:31:24.348Z,20.37
2017-09-08T02:33:51.310Z,36.93
2017-09-08T02:36:17.895Z,34.40
2017-09-08T02:38:44.125Z,23.53
2017-09-08T02:41:10.357Z,18.97
2017-09-08T02:43:36.774Z,30.77
2017-09-08T02:46:03.003Z,32.53
2017-09-08T02:48:29.235Z,24.77
2017-09-08T02:50:55.481Z,31.03
2017-09-08T02:53:21.734Z,29.53
2017-09-08T02:55:47.969Z,28.00
2017-09-08T02:58:14.206Z,40.40
2017-09-08T03:00:40.430Z,36.87
2017-09-08T03:03:06.666Z,39.83
2017-09-08T03:05:32.914Z,39.03
2017-09-08T03:07:59.126Z,40.13
2017-09-08T03:10:25.350Z,36.93
2017-09-08T03:12:51.592Z,30.07
2017-09-08T03:15:17.820Z,23.97
2017-09-08T03:17:44.029Z,46.83
2017-09-08T03:20:10.391Z,21.30
2017-09-08T03:22:36.605Z,44.47
2017-09-08T03:25:02.843Z,42.00
2017-09-08T03:27:29.112Z,55.33
2017-09-08T03:29:56.116Z,38.17
2017-09-08T03:32:22.328Z,40.57
2017-09-08T03:34:48.577Z,55.17
2017-09-08T03:37:14.784Z,45.83
2017-09-08T03:39:41.001Z,53.83
2017-09-08T03:42:07.254Z,41.50
2017-09-08T03:44:33.480Z,41.03
2017-09-08T03:46:59.697Z,51.03
2017-09-08T03:49:25.926Z,42.10
2017-09-08T03:51:52.154Z,52.50
2017-09-08T03:54:18.410Z,49.10
2017-09-08T03:56:44.634Z,33.97
2017-09-08T03:59:10.860Z,39.73
2017-09-08T04:01:37.139Z,44.77
2017-09-08T04:04:04.132Z,51.37
2017-09-08T04:06:30.360Z,48.43
2017-09-08T04:08:56.609Z,52.43
2017-09-08T04:11:22.847Z,35.77
2017-09-08T04:13:49.097Z,40.27
2017-09-08T04:16:16.365Z,42.67
2017-09-08T04:18:42.617Z,38.17
2017-09-08T04:21:08.837Z,51.37
2017-09-08T04:23:35.402Z,33.30
2017-09-08T04:26:01.642Z,30.03
2017-09-08T04:28:27.891Z,49.17
2017-09-08T04:30:54.874Z,60.73
2017-09-08T04:33:21.099Z,49.70
2017-09-08T04:35:47.314Z,36.60
2017-09-08T04:38:13.583Z,34.53
2017-09-08T04:40:39.833Z,45.40
2017-09-08T04:43:06.069Z,33.20
2017-09-08T04:45:32.675Z,34.43
2017-09-08T04:47:59.650Z,40.37
2017-09-08T04:50:25.893Z,49.50
2017-09-08T04:52:52.142Z,16.37
2017-09-08T04:55:18.363Z,49.30
2017-09-08T04:57:44.590Z,40.50
2017-09-08T05:00:10.842Z,42.83
2017-09-08T05:02:37.094Z,47.23
2017-09-08T05:05:03.332Z,48.20
2017-09-08T05:07:29.578Z,38.30
2017-09-08T05:09:55.804Z,34.70
2017-09-08T05:12:22.026Z,41.27
2017-09-08T05:14:48.309Z,44.60
2017-09-08T05:17:14.525Z,38.83
2017-09-08T05:19:40.742Z,42.17
2017-09-08T05:22:07.766Z,38.43
2017-09-08T05:24:34.730Z,32.03
2017-09-08T05:27:01.713Z,34.57
2017-09-08T05:29:27.937Z,33.60
2017-09-08T05:31:54.160Z,25.13
2017-09-08T05:34:20.399Z,44.83
2017-09-08T05:36:46.618Z,32.93
2017-09-08T05:39:12.836Z,44.67
2017-09-08T05:41:39.100Z,33.07
2017-09-08T05:44:05.326Z,36.30
2017-09-08T05:46:31.551Z,27.87
2017-09-08T05:48:57.906Z,36.87
2017-09-08T05:51:24.135Z,35.43
2017-09-08T05:53:50.371Z,22.07
2017-09-08T05:56:16.745Z,33.47
2017-09-08T05:58:43.352Z,27.43
2017-09-08T06:01:09.583Z,22.37
2017-09-08T06:03:36.027Z,36.20
2017-09-08T06:06:02.303Z,33.40
2017-09-08T06:08:28.937Z,30.17
2017-09-08T06:10:55.205Z,27.50
2017-09-08T06:13:22.203Z,39.80
2017-09-08T06:15:48.621Z,32.10
2017-09-08T06:18:14.846Z,34.83
2017-09-08T06:20:41.302Z,25.60
2017-09-08T06:23:07.528Z,29.20
2017-09-08T06:25:33.792Z,38.40
2017-09-08T06:28:01.001Z,32.43
2017-09-08T06:30:27.362Z,44.20
2017-09-08T06:32:53.788Z,35.90
2017-09-08T06:35:20.027Z,29.77
2017-09-08T06:37:46.504Z,41.63
2017-09-08T06:40:12.761Z,26.23
2017-09-08T06:42:39.100Z,42.10
2017-09-08T06:45:05.345Z,29.93
2017-09-08T06:47:31.620Z,37.27
2017-09-08T06:49:57.832Z,40.50
2017-09-08T06:52:24.077Z,31.27
2017-09-08T06:54:50.342Z,33.67
2017-09-08T06:57:16.564Z,41.03
2017-09-08T06:59:42.822Z,45.60
2017-09-08T07:02:11.048Z,29.00
2017-09-08T07:04:38.188Z,38.23
2017-09-08T07:07:04.487Z,35.00
2017-09-08T07:09:30.738Z,47.63
2017-09-08T07:11:56.962Z,45.73
2017-09-08T07:14:23.340Z,48.73
2017-09-08T07:16:49.583Z,44.67
2017-09-08T07:19:16.154Z,35.00
2017-09-08T07:21:42.380Z,29.67
2017-09-08T07:24:09.722Z,49.23
2017-09-08T07:26:36.963Z,41.37
2017-09-08T07:29:03.944Z,61.57
2017-09-08T07:31:32.307Z,22.07
2017-09-08T07:33:59.525Z,55.33
2017-09-08T07:36:28.362Z,49.50
2017-09-08T07:38:55.989Z,31.63
2017-09-08T07:41:23.148Z,29.30
2017-09-08T07:43:51.061Z,34.40
2017-09-08T07:46:17.289Z,28.07
2017-09-08T07:48:43.752Z,36.40
2017-09-08T07:51:10.054Z,33.50
2017-09-08T07:53:36.477Z,17.70
2017-09-08T07:56:02.737Z,28.53
2017-09-08T07:58:28.967Z,17.93
2017-09-08T08:00:55.182Z,22.10
2017-09-08T08:03:21.660Z,24.10
2017-09-08T08:05:48.633Z,43.13
2017-09-08T08:08:14.866Z,20.40
2017-09-08T08:10:41.146Z,21.93
2017-09-08T08:13:07.381Z,22.13
2017-09-08T08:15:34.364Z,21.30
2017-09-08T08:18:00.618Z,19.77
2017-09-08T08:20:26.826Z,35.13
2017-09-08T08:22:53.066Z,23.90
2017-09-08T08:25:19.318Z,29.83
2017-09-08T08:27:45.560Z,20.67
2017-09-08T08:30:11.785Z,29.13
2017-09-08T08:32:38.305Z,21.53
2017-09-08T08:35:04.545Z,25.23
2017-09-08T08:37:30.762Z,24.87
2017-09-08T08:39:57.022Z,39.30
2017-09-08T08:42:24.008Z,24.97
2017-09-08T08:44:50.253Z,29.87
2017-09-08T08:47:16.686Z,32.60
2017-09-08T08:49:42.906Z,31.57
2017-09-08T08:52:09.149Z,28.30
2017-09-08T08:54:35.582Z,43.97
2017-09-08T08:57:01.810Z,24.47
2017-09-08T08:59:28.026Z,25.37
2017-09-08T09:01:54.282Z,27.07
2017-09-08T09:04:20.510Z,27.37
2017-09-08T09:06:46.730Z,40.77
2017-09-08T09:09:12.993Z,23.97
2017-09-08T09:11:39.942Z,16.63
2017-09-08T09:14:06.892Z,25.17
2017-09-08T09:16:33.295Z,21.23
2017-09-08T09:18:59.524Z,21.30
2017-09-08T09:21:25.742Z,28.80
2017-09-08T09:23:52.259Z,22.67
2017-09-08T09:26:18.526Z,26.07
2017-09-08T09:28:45.742Z,21.23
2017-09-08T09:31:12.297Z,19.07
2017-09-08T09:33:38.530Z,29.33
2017-09-08T09:36:05.501Z,35.70
2017-09-08T09:38:32.424Z,22.63
2017-09-08T09:40:59.130Z,29.07
2017-09-08T09:43:25.791Z,17.40
2017-09-08T09:45:52.464Z,13.37
2017-09-08T09:48:19.218Z,30.57
2017-09-08T09:50:45.682Z,31.17
2017-09-08T09:53:11.999Z,24.37
2017-09-08T09:55:38.368Z,13.73
2017-09-08T09:58:04.672Z,20.77
2017-09-08T10:00:30.897Z,33.43
2017-09-08T10:02:57.114Z,28.73
2017-09-08T10:05:23.377Z,26.47
2017-09-08T10:07:49.588Z,24.60
2017-09-08T10:10:15.798Z,25.60
2017-09-08T10:12:42.055Z,18.83
2017-09-08T10:15:08.290Z,14.73
2017-09-08T10:17:34.517Z,23.07
2017-09-08T10:20:00.855Z,19.50
2017-09-08T10:22:27.809Z,17.70
2017-09-08T10:24:54.774Z,14.83
2017-09-08T10:27:21.005Z,16.90
2017-09-08T10:29:47.286Z,24.33
2017-09-08T10:32:13.717Z,18.70
2017-09-08T10:34:40.119Z,18.57
2017-09-08T10:37:06.338Z,14.13
2017-09-08T10:39:32.566Z,9.90
2017-09-08T10:41:58.821Z,14.17
2017-09-08T10:44:25.040Z,15.27
2017-09-08T10:46:58.752Z,10.70
2017-09-08T10:49:24.985Z,6.77
2017-09-08T10:51:51.214Z,22.67
2017-09-08T10:54:17.721Z,11.10
2017-09-08T10:56:43.944Z,11.70
2017-09-08T10:59:10.367Z,17.47
2017-09-08T11:01:36.615Z,10.87
2017-09-08T11:04:02.852Z,19.47
2017-09-08T11:06:29.061Z,13.10
2017-09-08T11:08:55.300Z,18.43
2017-09-08T11:11:21.522Z,10.27
2017-09-08T11:13:47.745Z,19.10
2017-09-08T11:16:14.025Z,17.37
2017-09-08T11:18:40.245Z,14.03
2017-09-08T11:21:06.470Z,15.63
2017-09-08T11:23:32.721Z,13.30
2017-09-08T11:25:59.674Z,10.13
2017-09-08T11:28:26.729Z,13.40
2017-09-08T11:30:53.754Z,15.80
2017-09-08T11:33:26.849Z,26.73
2017-09-08T11:35:59.190Z,12.37
2017-09-08T11:38:25.426Z,24.13
2017-09-08T11:40:51.673Z,31.67
2017-09-08T11:43:18.688Z,29.10
2017-09-08T11:45:44.913Z,34.40
2017-09-08T11:48:11.450Z,14.87
2017-09-08T11:50:37.737Z,22.83
2017-09-08T11:53:04.058Z,24.57
2017-09-08T11:55:30.390Z,28.93
2017-09-08T11:57:57.089Z,16.57
2017-09-08T12:00:23.384Z,16.70
2017-09-08T12:02:49.673Z,19.90
2017-09-08T12:05:15.893Z,28.40
2017-09-08T12:07:42.110Z,25.40
2017-09-08T12:10:08.457Z,18.83
2017-09-08T12:12:35.417Z,26.50
2017-09-08T12:15:02.394Z,18.37
2017-09-08T12:17:28.630Z,19.27
2017-09-08T12:19:54.850Z,21.97
2017-09-08T12:22:21.060Z,18.70
2017-09-08T12:24:47.426Z,27.90
2017-09-08T12:27:13.639Z,15.37
2017-09-08T12:29:39.866Z,15.63
2017-09-08T12:32:06.115Z,16.97
2017-09-08T12:34:32.336Z,19.40
2017-09-08T12:36:58.555Z,19.50
2017-09-08T12:39:24.822Z,19.93
2017-09-08T12:41:51.050Z,20.40
2017-09-08T12:44:17.256Z,11.27
2017-09-08T12:46:43.533Z,16.90
2017-09-08T12:49:09.769Z,24.23
2017-09-08T12:51:35.989Z,15.20
2017-09-08T12:54:02.256Z,11.10
2017-09-08T12:56:28.470Z,18.17
2017-09-08T12:58:54.693Z,23.40
2017-09-08T13:01:21.042Z,21.30
2017-09-08T13:03:47.255Z,18.57
2017-09-08T13:06:13.505Z,15.00
2017-09-08T13:08:39.712Z,14.80
2017-09-08T13:11:05.931Z,17.37
2017-09-08T13:13:32.194Z,20.50
2017-09-08T13:15:58.412Z,10.50
2017-09-08T13:18:24.652Z,10.20
2017-09-08T13:20:50.904Z,20.50
2017-09-08T13:23:17.125Z,13.23
2017-09-08T13:25:43.361Z,17.53
2017-09-08T13:28:09.602Z,10.13
2017-09-08T13:30:36.604Z,13.57
2017-09-08T13:33:02.828Z,22.73
2017-09-08T13:35:29.267Z,16.40
2017-09-08T13:37:55.481Z,9.60
2017-09-08T13:40:21.707Z,33.17
2017-09-08T13:42:48.214Z,39.97
2017-09-08T13:45:14.461Z,31.30
2017-09-08T13:47:40.691Z,14.47
2017-09-08T13:50:06.917Z,28.07
2017-09-08T13:52:33.174Z,20.80
2017-09-08T13:54:59.411Z,12.13
2017-09-08T13:57:25.631Z,14.50
2017-09-08T13:59:51.852Z,18.67
2017-09-08T14:02:18.468Z,6.17
2017-09-08T14:04:44.679Z,13.50
2017-09-08T14:07:10.893Z,12.23
2017-09-08T14:09:37.901Z,13.60
2017-09-08T14:12:04.141Z,31.13
2017-09-08T14:14:30.351Z,12.30
2017-09-08T14:16:56.606Z,10.30
2017-09-08T14:19:22.830Z,7.87
2017-09-08T14:21:49.045Z,11.50
2017-09-08T14:24:15.306Z,8.60
2017-09-08T14:26:42.278Z,8.67
2017-09-08T14:29:08.488Z,8.43
2017-09-08T14:31:35.514Z,11.30
2017-09-08T14:34:02.481Z,5.97
2017-09-08T14:36:29.448Z,8.97
2017-09-08T14:38:55.699Z,9.07
2017-09-08T14:41:21.943Z,16.47
2017-09-08T14:43:48.151Z,6.83
2017-09-08T14:46:14.375Z,5.43
2017-09-08T14:48:40.661Z,7.77
2017-09-08T14:51:06.890Z,9.70
2017-09-08T14:53:33.130Z,8.17
2017-09-08T14:55:59.375Z,11.37
2017-09-08T14:58:25.613Z,13.77
2017-09-08T15:00:51.836Z,7.07
2017-09-08T15:03:18.087Z,11.90
2017-09-08T15:05:44.317Z,8.23
2017-09-08T15:08:10.535Z,13.50
2017-09-08T15:10:36.750Z,16.33
2017-09-08T15:13:03.012Z,11.70
2017-09-08T15:15:29.248Z,9.10
2017-09-08T15:17:55.456Z,10.63
2017-09-08T15:20:21.983Z,12.40
2017-09-08T15:22:48.190Z,14.67
2017-09-08T15:25:14.413Z,9.00
2017-09-08T15:27:40.653Z,14.00
2017-09-08T15:30:06.873Z,14.03
2017-09-08T15:32:33.093Z,16.20
2017-09-08T15:34:59.672Z,12.27
2017-09-08T15:37:25.894Z,14.77
2017-09-08T15:39:52.123Z,13.77
2017-09-08T15:42:18.392Z,14.50
2017-09-08T15:44:45.372Z,10.10
2017-09-08T15:47:11.601Z,13.50
2017-09-08T15:49:37.850Z,10.13
2017-09-08T15:52:04.079Z,13.27
2017-09-08T15:54:30.306Z,15.63
2017-09-08T15:56:56.585Z,12.30
2017-09-08T15:59:23.548Z,15.90
2017-09-08T16:01:49.767Z,15.47
2017-09-08T16:04:16.164Z,15.10
2017-09-08T16:06:42.389Z,17.10
2017-09-08T16:09:08.603Z,15.83
2017-09-08T16:11:34.848Z,16.13
2017-09-08T16:14:01.078Z,21.63
2017-09-08T16:16:28.043Z,38.30
2017-09-08T16:18:55.274Z,10.17
2017-09-08T16:21:22.262Z,34.60
2017-09-08T16:23:48.492Z,16.90
2017-09-08T16:26:14.757Z,16.60
2017-09-08T16:28:40.976Z,27.07
2017-09-08T16:31:07.199Z,19.07
2017-09-08T16:33:33.649Z,14.83
2017-09-08T16:35:59.891Z,17.60
2017-09-08T16:38:26.109Z,13.50
2017-09-08T16:40:52.627Z,13.87
2017-09-08T16:43:18.833Z,28.83
2017-09-08T16:45:45.054Z,14.10
2017-09-08T16:48:11.291Z,26.10
2017-09-08T16:50:37.515Z,11.70
2017-09-08T16:53:03.751Z,14.23
2017-09-08T16:55:29.996Z,11.47
2017-09-08T16:57:56.529Z,14.23
2017-09-08T17:00:22.749Z,13.20
2017-09-08T17:02:48.966Z,11.83
2017-09-08T17:05:15.226Z,9.07
2017-09-08T17:07:41.445Z,11.70
2017-09-08T17:10:07.669Z,23.13
2017-09-08T17:12:33.899Z,14.63
2017-09-08T17:15:00.333Z,18.10
2017-09-08T17:17:26.561Z,12.70
2017-09-08T17:19:52.773Z,20.40
2017-09-08T17:22:19.037Z,12.20
2017-09-08T17:24:45.270Z,14.90
2017-09-08T17:27:11.530Z,14.67
2017-09-08T17:29:38.005Z,13.30
2017-09-08T17:32:04.232Z,17.80
2017-09-08T17:34:30.463Z,13.40
2017-09-08T17:36:56.691Z,8.57
2017-09-08T17:39:22.926Z,11.20
2017-09-08T17:41:49.453Z,12.10
2017-09-08T17:44:15.681Z,8.20
2017-09-08T17:46:41.905Z,12.80
2017-09-08T17:49:08.145Z,12.30
2017-09-08T17:51:34.369Z,11.40
2017-09-08T17:54:00.634Z,13.13
2017-09-08T17:56:27.634Z,24.37
2017-09-08T17:58:53.854Z,12.00
2017-09-08T18:01:20.087Z,19.50
2017-09-08T18:03:46.303Z,19.23
2017-09-08T18:06:12.530Z,20.37
2017-09-08T18:08:38.992Z,11.00
2017-09-08T18:11:05.236Z,17.80
2017-09-08T18:13:31.461Z,14.33
2017-09-08T18:15:57.702Z,13.47
2017-09-08T18:18:24.678Z,21.63
2017-09-08T18:20:50.916Z,17.87
2017-09-08T18:23:17.145Z,16.63
2017-09-08T18:25:43.390Z,22.20
2017-09-08T18:28:09.644Z,18.23
2017-09-08T18:30:35.872Z,14.73
2017-09-08T18:33:02.125Z,15.00
2017-09-08T18:35:29.402Z,12.23
2017-09-08T18:37:55.637Z,21.27
2017-09-08T18:40:21.882Z,17.80
2017-09-08T18:42:48.107Z,15.80
2017-09-08T18:45:14.340Z,20.87
2017-09-08T18:47:40.578Z,22.10
2017-09-08T18:50:07.572Z,16.30
2017-09-08T18:52:33.824Z,34.00
2017-09-08T18:55:00.098Z,14.00
2017-09-08T18:57:26.357Z,16.23
2017-09-08T18:59:53.327Z,20.00
2017-09-08T19:02:19.582Z,19.37
2017-09-08T19:04:45.810Z,12.90
2017-09-08T19:07:12.204Z,18.90
2017-09-08T19:09:38.602Z,17.03
2017-09-08T19:12:05.578Z,20.20
2017-09-08T19:14:31.815Z,16.77
2017-09-08T19:16:58.051Z,16.30
2017-09-08T19:19:24.291Z,23.40
2017-09-08T19:21:50.509Z,15.60
2017-09-08T19:24:16.972Z,17.70
2017-09-08T19:26:43.226Z,22.70
2017-09-08T19:29:10.198Z,25.07
2017-09-08T19:31:36.680Z,25.53
2017-09-08T19:34:03.665Z,29.07
2017-09-08T19:36:30.641Z,23.13
2017-09-08T19:38:56.963Z,17.97
2017-09-08T19:41:23.206Z,17.33
2017-09-08T19:43:49.458Z,17.33
2017-09-08T19:46:15.713Z,19.17
2017-09-08T19:48:42.712Z,14.90
2017-09-08T19:51:08.939Z,14.90
2017-09-08T19:53:35.310Z,11.13
2017-09-08T19:56:01.556Z,15.63
2017-09-08T19:58:28.536Z,9.90
2017-09-08T20:00:54.993Z,10.17
2017-09-08T20:03:21.210Z,22.47
2017-09-08T20:05:47.435Z,20.30
2017-09-08T20:08:14.018Z,7.20
2017-09-08T20:10:40.989Z,50.77
2017-09-08T20:13:07.202Z,13.20
2017-09-08T20:15:34.162Z,10.20
2017-09-08T20:18:00.409Z,28.13
2017-09-08T20:20:26.646Z,10.80
2017-09-08T20:22:52.875Z,67.63
2017-09-08T20:25:19.147Z,19.73
2017-09-08T20:27:46.122Z,13.37
2017-09-08T20:30:12.350Z,20.23
2017-09-08T20:32:38.933Z,10.70
2017-09-08T20:35:05.158Z,11.53
2017-09-08T20:37:31.381Z,20.30
2017-09-08T20:39:57.621Z,20.80
2017-09-08T20:42:23.845Z,13.17
2017-09-08T20:44:50.069Z,11.90
2017-09-08T20:47:16.334Z,10.63
2017-09-08T20:49:43.298Z,8.40
2017-09-08T20:52:09.519Z,9.00
2017-09-08T20:54:35.767Z,14.73
2017-09-08T20:57:02.022Z,8.07
2017-09-08T20:59:28.283Z,8.70
2017-09-08T21:01:54.509Z,7.63
2017-09-08T21:04:20.736Z,9.27
2017-09-08T21:06:47.245Z,9.07
2017-09-08T21:09:13.617Z,11.63
2017-09-08T21:11:40.610Z,7.47
2017-09-08T21:14:06.851Z,10.70
2017-09-08T21:16:33.118Z,8.70
2017-09-08T21:19:00.080Z,7.83
2017-09-08T21:21:26.297Z,6.77
2017-09-08T21:23:53.276Z,9.93
2017-09-08T21:26:19.516Z,6.07
2017-09-08T21:28:45.727Z,8.97
2017-09-08T21:31:11.977Z,7.10
2017-09-08T21:33:38.194Z,7.77
2017-09-08T21:36:04.420Z,5.90
2017-09-08T21:38:30.877Z,7.80
2017-09-08T21:40:57.103Z,8.37
2017-09-08T21:43:23.329Z,11.50
2017-09-08T21:45:49.588Z,12.70
2017-09-08T21:48:16.555Z,5.50
2017-09-08T21:50:42.786Z,7.63
2017-09-08T21:53:09.023Z,8.03
2017-09-08T21:55:35.239Z,5.67
2017-09-08T21:58:01.457Z,9.93
2017-09-08T22:00:28.766Z,12.27
2017-09-08T22:02:55.013Z,8.47
2017-09-08T22:05:21.241Z,7.90
2017-09-08T22:07:47.578Z,8.57
2017-09-08T22:10:13.802Z,9.53
2017-09-08T22:12:40.063Z,12.17
2017-09-08T22:15:07.057Z,12.70
2017-09-08T22:17:33.269Z,7.53
2017-09-08T22:19:59.494Z,10.73
2017-09-08T22:22:25.739Z,18.73
2017-09-08T22:24:51.973Z,9.00
2017-09-08T22:27:18.205Z,8.50
2017-09-08T22:29:44.459Z,9.03
2017-09-08T22:32:11.446Z,8.87
2017-09-08T22:34:37.783Z,8.20
2017-09-08T22:37:04.006Z,11.20
2017-09-08T22:39:30.218Z,8.10
2017-09-08T22:41:56.694Z,15.07
2017-09-08T22:44:22.949Z,6.77
2017-09-08T22:46:49.166Z,6.47
2017-09-08T22:49:15.683Z,11.57
2017-09-08T22:51:41.916Z,8.93
2017-09-08T22:54:08.159Z,10.13
2017-09-08T22:56:34.441Z,9.17
2017-09-08T22:59:00.658Z,5.57
2017-09-08T23:01:26.886Z,4.33
2017-09-08T23:03:53.106Z,6.77
2017-09-08T23:06:19.335Z,6.77
2017-09-08T23:08:45.808Z,5.37
2017-09-08T23:11:12.041Z,5.40
2017-09-08T23:13:38.322Z,5.50
2017-09-08T23:16:04.585Z,5.53
2017-09-08T23:18:30.814Z,6.53
2017-09-08T23:20:57.070Z,8.13
2017-09-08T23:23:23.320Z,8.77
2017-09-08T23:25:49.575Z,5.03
2017-09-08T23:28:15.786Z,8.83
2017-09-08T23:30:42.078Z,7.77
2017-09-08T23:33:08.316Z,5.77
2017-09-08T23:35:34.549Z,6.47
2017-09-08T23:38:01.692Z,4.80
2017-09-08T23:40:27.918Z,4.53
2017-09-08T23:42:54.141Z,6.50
2017-09-08T23:45:20.385Z,3.67
2017-09-08T23:47:46.636Z,5.30
2017-09-08T23:50:12.997Z,6.03
2017-09-08T23:52:39.220Z,4.03
2017-09-08T23:55:05.457Z,5.67
2017-09-08T23:57:31.798Z,3.80
2017-09-08T23:59:58.007Z,2.50
